sensor_id;sensor_type;location;lat;lon;timestamp;pressure;altitude;pressure_sealevel;temperature;humidity
67987;BME280;54767;53.800;15.956;2023-02-23T00:02:07;100499.02;;;0.55;70.67
67987;BME280;54767;53.800;15.956;2023-02-23T00:04:36;100500.34;;;0.54;70.48
67987;BME280;54767;53.800;15.956;2023-02-23T00:07:05;100493.36;;;0.55;70.79
67987;BME280;54767;53.800;15.956;2023-02-23T00:09:33;100495.31;;;0.57;70.74
67987;BME280;54767;53.800;15.956;2023-02-23T00:12:05;100494.55;;;0.59;70.64
67987;BME280;54767;53.800;15.956;2023-02-23T00:14:37;100493.83;;;0.58;70.45
67987;BME280;54767;53.800;15.956;2023-02-23T00:17:06;100489.89;;;0.55;70.47
67987;BME280;54767;53.800;15.956;2023-02-23T00:19:49;100491.73;;;0.54;70.46
67987;BME280;54767;53.800;15.956;2023-02-23T00:22:39;100489.95;;;0.49;70.50
67987;BME280;54767;53.800;15.956;2023-02-23T00:25:08;100485.87;;;0.47;70.73
67987;BME280;54767;53.800;15.956;2023-02-23T00:27:39;100485.80;;;0.45;70.66
67987;BME280;54767;53.800;15.956;2023-02-23T00:30:14;100482.46;;;0.43;70.62
67987;BME280;54767;53.800;15.956;2023-02-23T00:32:45;100480.82;;;0.45;70.87
67987;BME280;54767;53.800;15.956;2023-02-23T00:35:14;100479.48;;;0.46;70.73
67987;BME280;54767;53.800;15.956;2023-02-23T00:37:47;100480.39;;;0.47;70.65
67987;BME280;54767;53.800;15.956;2023-02-23T00:40:16;100479.16;;;0.47;70.62
67987;BME280;54767;53.800;15.956;2023-02-23T00:42:45;100480.91;;;0.43;70.72
67987;BME280;54767;53.800;15.956;2023-02-23T00:45:14;100477.70;;;0.41;70.66
67987;BME280;54767;53.800;15.956;2023-02-23T00:47:43;100474.34;;;0.39;70.56
67987;BME280;54767;53.800;15.956;2023-02-23T00:50:14;100466.81;;;0.37;70.84
67987;BME280;54767;53.800;15.956;2023-02-23T00:52:43;100468.02;;;0.36;70.71
67987;BME280;54767;53.800;15.956;2023-02-23T00:55:13;100465.21;;;0.39;70.53
67987;BME280;54767;53.800;15.956;2023-02-23T00:57:42;100465.32;;;0.41;70.72
67987;BME280;54767;53.800;15.956;2023-02-23T01:00:11;100464.45;;;0.41;70.70
67987;BME280;54767;53.800;15.956;2023-02-23T01:02:48;100459.44;;;0.40;70.37
67987;BME280;54767;53.800;15.956;2023-02-23T01:05:17;100453.34;;;0.39;70.76
67987;BME280;54767;53.800;15.956;2023-02-23T01:07:47;100450.35;;;0.38;70.78
67987;BME280;54767;53.800;15.956;2023-02-23T01:10:16;100445.95;;;0.36;70.79
67987;BME280;54767;53.800;15.956;2023-02-23T01:12:48;100445.02;;;0.34;70.64
67987;BME280;54767;53.800;15.956;2023-02-23T01:15:17;100437.38;;;0.33;71.09
67987;BME280;54767;53.800;15.956;2023-02-23T01:17:46;100437.21;;;0.29;70.94
67987;BME280;54767;53.800;15.956;2023-02-23T01:20:15;100429.83;;;0.30;70.82
67987;BME280;54767;53.800;15.956;2023-02-23T01:22:48;100433.90;;;0.32;71.00
67987;BME280;54767;53.800;15.956;2023-02-23T01:25:17;100428.26;;;0.33;71.00
67987;BME280;54767;53.800;15.956;2023-02-23T01:27:45;100426.52;;;0.32;70.97
67987;BME280;54767;53.800;15.956;2023-02-23T01:30:14;100419.52;;;0.30;70.74
67987;BME280;54767;53.800;15.956;2023-02-23T01:32:42;100419.83;;;0.29;70.74
67987;BME280;54767;53.800;15.956;2023-02-23T01:35:11;100417.89;;;0.28;70.96
67987;BME280;54767;53.800;15.956;2023-02-23T01:37:41;100412.21;;;0.28;71.18
67987;BME280;54767;53.800;15.956;2023-02-23T01:40:14;100414.20;;;0.27;70.65
67987;BME280;54767;53.800;15.956;2023-02-23T01:42:45;100413.59;;;0.25;70.74
67987;BME280;54767;53.800;15.956;2023-02-23T01:45:26;100409.16;;;0.26;71.03
67987;BME280;54767;53.800;15.956;2023-02-23T01:47:58;100407.17;;;0.27;71.00
67987;BME280;54767;53.800;15.956;2023-02-23T01:50:53;100399.43;;;0.28;70.74
67987;BME280;54767;53.800;15.956;2023-02-23T01:53:24;100392.89;;;0.27;70.99
67987;BME280;54767;53.800;15.956;2023-02-23T01:55:57;100386.36;;;0.28;71.10
67987;BME280;54767;53.800;15.956;2023-02-23T01:58:27;100384.42;;;0.27;70.98
67987;BME280;54767;53.800;15.956;2023-02-23T02:00:59;100382.09;;;0.25;70.87
67987;BME280;54767;53.800;15.956;2023-02-23T02:03:37;100378.09;;;0.23;71.08
67987;BME280;54767;53.800;15.956;2023-02-23T02:06:08;100377.22;;;0.23;70.98
67987;BME280;54767;53.800;15.956;2023-02-23T02:08:37;100370.63;;;0.22;71.24
67987;BME280;54767;53.800;15.956;2023-02-23T02:11:14;100365.28;;;0.26;71.27
67987;BME280;54767;53.800;15.956;2023-02-23T02:14:06;100363.06;;;0.27;70.96
67987;BME280;54767;53.800;15.956;2023-02-23T02:16:55;100366.86;;;0.26;70.97
67987;BME280;54767;53.800;15.956;2023-02-23T02:19:58;100357.94;;;0.27;71.30
67987;BME280;54767;53.800;15.956;2023-02-23T02:22:49;100354.43;;;0.26;71.42
67987;BME280;54767;53.800;15.956;2023-02-23T02:25:28;100347.50;;;0.25;71.30
67987;BME280;54767;53.800;15.956;2023-02-23T02:28:34;100347.59;;;0.23;71.18
67987;BME280;54767;53.800;15.956;2023-02-23T02:40:08;100328.88;;;0.24;71.37
67987;BME280;54767;53.800;15.956;2023-02-23T02:42:55;100323.48;;;0.22;71.36
67987;BME280;54767;53.800;15.956;2023-02-23T02:45:33;100317.92;;;0.21;71.32
67987;BME280;54767;53.800;15.956;2023-02-23T02:48:07;100318.23;;;0.20;71.30
67987;BME280;54767;53.800;15.956;2023-02-23T02:53:17;100308.97;;;0.21;71.56
67987;BME280;54767;53.800;15.956;2023-02-23T02:55:49;100305.10;;;0.24;70.98
67987;BME280;54767;53.800;15.956;2023-02-23T02:58:18;100301.90;;;0.25;71.39
67987;BME280;54767;53.800;15.956;2023-02-23T03:00:47;100302.41;;;0.25;71.51
67987;BME280;54767;53.800;15.956;2023-02-23T03:03:41;100298.05;;;0.23;71.40
67987;BME280;54767;53.800;15.956;2023-02-23T03:06:33;100298.15;;;0.22;71.54
67987;BME280;54767;53.800;15.956;2023-02-23T03:15:53;100288.91;;;0.19;71.79
67987;BME280;54767;53.800;15.956;2023-02-23T03:26:04;100275.37;;;0.20;71.55
67987;BME280;54767;53.800;15.956;2023-02-23T03:28:40;100281.16;;;0.19;71.70
67987;BME280;54767;53.800;15.956;2023-02-23T03:31:42;100275.63;;;0.18;72.01
67987;BME280;54767;53.800;15.956;2023-02-23T03:34:38;100278.34;;;0.17;71.74
67987;BME280;54767;53.800;15.956;2023-02-23T03:37:37;100273.70;;;0.17;71.92
67987;BME280;54767;53.800;15.956;2023-02-23T03:40:30;100278.66;;;0.20;71.75
67987;BME280;54767;53.800;15.956;2023-02-23T03:43:23;100270.74;;;0.21;71.67
67987;BME280;54767;53.800;15.956;2023-02-23T03:46:13;100265.38;;;0.24;71.45
67987;BME280;54767;53.800;15.956;2023-02-23T03:49:04;100265.87;;;0.23;71.64
67987;BME280;54767;53.800;15.956;2023-02-23T03:51:58;100264.48;;;0.23;71.84
67987;BME280;54767;53.800;15.956;2023-02-23T03:54:56;100252.87;;;0.21;71.81
67987;BME280;54767;53.800;15.956;2023-02-23T03:57:46;100249.88;;;0.20;71.98
67987;BME280;54767;53.800;15.956;2023-02-23T04:00:40;100250.91;;;0.20;71.78
67987;BME280;54767;53.800;15.956;2023-02-23T04:03:31;100250.65;;;0.22;71.57
67987;BME280;54767;53.800;15.956;2023-02-23T04:06:23;100249.91;;;0.25;71.78
67987;BME280;54767;53.800;15.956;2023-02-23T04:09:11;100247.14;;;0.25;71.77
67987;BME280;54767;53.800;15.956;2023-02-23T04:12:10;100245.02;;;0.23;71.70
67987;BME280;54767;53.800;15.956;2023-02-23T04:15:43;100245.48;;;0.22;72.11
67987;BME280;54767;53.800;15.956;2023-02-23T04:18:13;100243.30;;;0.19;71.93
67987;BME280;54767;53.800;15.956;2023-02-23T04:20:41;100239.64;;;0.18;72.15
67987;BME280;54767;53.800;15.956;2023-02-23T04:23:10;100237.05;;;0.17;71.96
67987;BME280;54767;53.800;15.956;2023-02-23T04:25:38;100233.00;;;0.20;71.76
67987;BME280;54767;53.800;15.956;2023-02-23T04:28:06;100227.42;;;0.22;71.64
67987;BME280;54767;53.800;15.956;2023-02-23T04:30:34;100225.88;;;0.22;71.64
67987;BME280;54767;53.800;15.956;2023-02-23T04:33:02;100224.52;;;0.23;71.93
67987;BME280;54767;53.800;15.956;2023-02-23T04:35:30;100219.52;;;0.22;71.92
67987;BME280;54767;53.800;15.956;2023-02-23T04:37:59;100216.18;;;0.20;71.72
67987;BME280;54767;53.800;15.956;2023-02-23T04:40:28;100212.52;;;0.19;71.85
67987;BME280;54767;53.800;15.956;2023-02-23T04:42:56;100211.05;;;0.17;71.94
67987;BME280;54767;53.800;15.956;2023-02-23T04:45:24;100207.17;;;0.15;71.90
67987;BME280;54767;53.800;15.956;2023-02-23T04:47:53;100203.13;;;0.17;71.86
67987;BME280;54767;53.800;15.956;2023-02-23T04:50:22;100198.68;;;0.18;71.89
67987;BME280;54767;53.800;15.956;2023-02-23T04:52:50;100193.88;;;0.18;71.91
67987;BME280;54767;53.800;15.956;2023-02-23T04:55:22;100191.60;;;0.17;72.05
67987;BME280;54767;53.800;15.956;2023-02-23T04:57:56;100194.61;;;0.15;71.84
67987;BME280;54767;53.800;15.956;2023-02-23T05:00:26;100189.52;;;0.13;72.18
67987;BME280;54767;53.800;15.956;2023-02-23T05:02:56;100186.50;;;0.11;72.08
67987;BME280;54767;53.800;15.956;2023-02-23T05:05:24;100186.31;;;0.10;72.08
67987;BME280;54767;53.800;15.956;2023-02-23T05:07:52;100186.19;;;0.11;72.13
67987;BME280;54767;53.800;15.956;2023-02-23T05:10:22;100184.82;;;0.12;72.12
67987;BME280;54767;53.800;15.956;2023-02-23T05:12:50;100184.70;;;0.13;71.81
67987;BME280;54767;53.800;15.956;2023-02-23T05:15:18;100187.73;;;0.12;71.81
67987;BME280;54767;53.800;15.956;2023-02-23T05:17:46;100181.66;;;0.10;71.96
67987;BME280;54767;53.800;15.956;2023-02-23T05:20:15;100186.60;;;0.09;72.31
67987;BME280;54767;53.800;15.956;2023-02-23T05:22:43;100180.84;;;0.07;72.47
67987;BME280;54767;53.800;15.956;2023-02-23T05:25:11;100180.99;;;0.06;72.32
67987;BME280;54767;53.800;15.956;2023-02-23T05:27:39;100180.33;;;0.07;72.21
67987;BME280;54767;53.800;15.956;2023-02-23T05:30:08;100179.91;;;0.10;72.31
67987;BME280;54767;53.800;15.956;2023-02-23T05:32:37;100179.28;;;0.11;72.13
67987;BME280;54767;53.800;15.956;2023-02-23T05:35:05;100178.09;;;0.11;72.21
67987;BME280;54767;53.800;15.956;2023-02-23T05:37:34;100179.09;;;0.10;72.46
67987;BME280;54767;53.800;15.956;2023-02-23T05:40:02;100178.70;;;0.09;72.25
67987;BME280;54767;53.800;15.956;2023-02-23T05:42:30;100172.46;;;0.08;72.13
67987;BME280;54767;53.800;15.956;2023-02-23T05:44:58;100177.16;;;0.09;72.52
67987;BME280;54767;53.800;15.956;2023-02-23T05:47:26;100171.13;;;0.10;72.53
67987;BME280;54767;53.800;15.956;2023-02-23T05:49:54;100175.59;;;0.13;72.41
67987;BME280;54767;53.800;15.956;2023-02-23T05:52:23;100174.44;;;0.14;72.57
67987;BME280;54767;53.800;15.956;2023-02-23T05:54:51;100174.84;;;0.15;72.34
67987;BME280;54767;53.800;15.956;2023-02-23T05:57:19;100174.46;;;0.15;72.64
67987;BME280;54767;53.800;15.956;2023-02-23T05:59:48;100170.81;;;0.14;72.34
67987;BME280;54767;53.800;15.956;2023-02-23T06:02:16;100169.60;;;0.14;72.20
67987;BME280;54767;53.800;15.956;2023-02-23T06:04:44;100172.84;;;0.13;72.83
67987;BME280;54767;53.800;15.956;2023-02-23T06:07:13;100171.77;;;0.16;72.67
67987;BME280;54767;53.800;15.956;2023-02-23T06:09:42;100174.45;;;0.19;72.42
67987;BME280;54767;53.800;15.956;2023-02-23T06:12:11;100172.59;;;0.19;72.47
67987;BME280;54767;53.800;15.956;2023-02-23T06:14:39;100180.77;;;0.21;72.49
67987;BME280;54767;53.800;15.956;2023-02-23T06:17:07;100181.27;;;0.21;72.60
67987;BME280;54767;53.800;15.956;2023-02-23T06:19:35;100181.27;;;0.21;72.79
67987;BME280;54767;53.800;15.956;2023-02-23T06:22:03;100182.13;;;0.21;72.80
67987;BME280;54767;53.800;15.956;2023-02-23T06:24:31;100179.25;;;0.23;72.65
67987;BME280;54767;53.800;15.956;2023-02-23T06:27:02;100180.61;;;0.26;72.80
67987;BME280;54767;53.800;15.956;2023-02-23T06:29:31;100179.05;;;0.30;72.47
67987;BME280;54767;53.800;15.956;2023-02-23T06:31:59;100182.38;;;0.32;72.46
67987;BME280;54767;53.800;15.956;2023-02-23T06:34:28;100181.75;;;0.33;72.60
67987;BME280;54767;53.800;15.956;2023-02-23T06:36:56;100185.08;;;0.34;72.47
67987;BME280;54767;53.800;15.956;2023-02-23T06:39:24;100186.69;;;0.35;72.68
67987;BME280;54767;53.800;15.956;2023-02-23T06:41:52;100185.38;;;0.37;72.80
67987;BME280;54767;53.800;15.956;2023-02-23T06:44:20;100190.26;;;0.38;72.60
67987;BME280;54767;53.800;15.956;2023-02-23T06:46:49;100187.23;;;0.40;72.74
67987;BME280;54767;53.800;15.956;2023-02-23T06:49:17;100188.34;;;0.46;72.76
67987;BME280;54767;53.800;15.956;2023-02-23T06:51:45;100195.84;;;0.53;72.42
67987;BME280;54767;53.800;15.956;2023-02-23T06:54:14;100194.79;;;0.56;72.65
67987;BME280;54767;53.800;15.956;2023-02-23T06:56:43;100193.14;;;0.58;72.58
67987;BME280;54767;53.800;15.956;2023-02-23T06:59:11;100195.60;;;0.59;72.68
67987;BME280;54767;53.800;15.956;2023-02-23T07:01:39;100196.00;;;0.61;72.71
67987;BME280;54767;53.800;15.956;2023-02-23T07:04:11;100196.73;;;0.61;72.52
67987;BME280;54767;53.800;15.956;2023-02-23T07:06:43;100200.55;;;0.62;72.73
67987;BME280;54767;53.800;15.956;2023-02-23T07:09:11;100195.28;;;0.64;72.72
67987;BME280;54767;53.800;15.956;2023-02-23T07:11:40;100195.81;;;0.69;72.58
67987;BME280;54767;53.800;15.956;2023-02-23T07:14:10;100194.14;;;0.74;72.39
67987;BME280;54767;53.800;15.956;2023-02-23T07:16:48;100193.98;;;0.78;72.54
67987;BME280;54767;53.800;15.956;2023-02-23T07:19:16;100195.78;;;0.81;72.58
67987;BME280;54767;53.800;15.956;2023-02-23T07:21:44;100193.27;;;0.82;72.60
67987;BME280;54767;53.800;15.956;2023-02-23T07:24:12;100191.46;;;0.84;72.77
67987;BME280;54767;53.800;15.956;2023-02-23T07:26:41;100190.29;;;0.85;72.70
67987;BME280;54767;53.800;15.956;2023-02-23T07:29:14;100190.39;;;0.88;72.61
67987;BME280;54767;53.800;15.956;2023-02-23T07:31:42;100192.15;;;0.89;72.56
67987;BME280;54767;53.800;15.956;2023-02-23T07:34:11;100190.52;;;0.91;72.70
67987;BME280;54767;53.800;15.956;2023-02-23T07:36:39;100187.41;;;0.96;72.55
67987;BME280;54767;53.800;15.956;2023-02-23T07:39:07;100187.63;;;1.01;72.34
67987;BME280;54767;53.800;15.956;2023-02-23T07:41:35;100185.05;;;1.06;72.49
67987;BME280;54767;53.800;15.956;2023-02-23T07:44:03;100182.79;;;1.09;72.37
67987;BME280;54767;53.800;15.956;2023-02-23T07:46:31;100181.71;;;1.13;72.44
67987;BME280;54767;53.800;15.956;2023-02-23T07:48:59;100177.66;;;1.15;72.26
67987;BME280;54767;53.800;15.956;2023-02-23T07:51:28;100185.33;;;1.17;72.52
67987;BME280;54767;53.800;15.956;2023-02-23T07:53:56;100181.58;;;1.18;72.28
67987;BME280;54767;53.800;15.956;2023-02-23T07:56:24;100176.33;;;1.21;72.47
67987;BME280;54767;53.800;15.956;2023-02-23T07:58:52;100171.92;;;1.22;72.50
67987;BME280;54767;53.800;15.956;2023-02-23T08:01:20;100169.34;;;1.27;72.35
67987;BME280;54767;53.800;15.956;2023-02-23T08:03:49;100164.34;;;1.32;72.20
67987;BME280;54767;53.800;15.956;2023-02-23T08:06:18;100160.48;;;1.35;72.24
67987;BME280;54767;53.800;15.956;2023-02-23T08:08:47;100162.17;;;1.39;72.39
67987;BME280;54767;53.800;15.956;2023-02-23T08:11:15;100161.15;;;1.44;72.32
67987;BME280;54767;53.800;15.956;2023-02-23T08:13:43;100162.55;;;1.48;72.31
67987;BME280;54767;53.800;15.956;2023-02-23T08:16:12;100155.27;;;1.52;72.30
67987;BME280;54767;53.800;15.956;2023-02-23T08:18:40;100151.95;;;1.55;72.36
67987;BME280;54767;53.800;15.956;2023-02-23T08:21:08;100149.45;;;1.58;72.11
67987;BME280;54767;53.800;15.956;2023-02-23T08:23:36;100149.16;;;1.60;72.15
67987;BME280;54767;53.800;15.956;2023-02-23T08:26:04;100151.37;;;1.64;71.88
67987;BME280;54767;53.800;15.956;2023-02-23T08:28:32;100151.38;;;1.68;72.00
67987;BME280;54767;53.800;15.956;2023-02-23T08:31:00;100146.74;;;1.74;71.93
67987;BME280;54767;53.800;15.956;2023-02-23T08:33:29;100146.58;;;1.79;71.87
67987;BME280;54767;53.800;15.956;2023-02-23T08:35:58;100144.50;;;1.84;71.87
67987;BME280;54767;53.800;15.956;2023-02-23T08:38:29;100145.02;;;1.88;72.03
67987;BME280;54767;53.800;15.956;2023-02-23T08:41:02;100144.08;;;1.91;71.94
67987;BME280;54767;53.800;15.956;2023-02-23T08:43:31;100134.64;;;1.93;71.76
67987;BME280;54767;53.800;15.956;2023-02-23T08:45:59;100128.63;;;1.94;71.73
67987;BME280;54767;53.800;15.956;2023-02-23T08:48:27;100130.79;;;1.96;71.72
67987;BME280;54767;53.800;15.956;2023-02-23T08:50:56;100120.58;;;2.00;71.59
67987;BME280;54767;53.800;15.956;2023-02-23T08:53:25;100115.24;;;2.06;71.62
67987;BME280;54767;53.800;15.956;2023-02-23T08:56:01;100112.84;;;2.11;71.54
67987;BME280;54767;53.800;15.956;2023-02-23T08:58:30;100112.48;;;2.16;71.63
67987;BME280;54767;53.800;15.956;2023-02-23T09:00:58;100112.80;;;2.20;71.54
67987;BME280;54767;53.800;15.956;2023-02-23T09:03:28;100113.26;;;2.23;71.51
67987;BME280;54767;53.800;15.956;2023-02-23T09:06:04;100112.33;;;2.27;71.50
67987;BME280;54767;53.800;15.956;2023-02-23T09:08:34;100113.33;;;2.31;71.50
67987;BME280;54767;53.800;15.956;2023-02-23T09:11:02;100117.77;;;2.35;71.51
67987;BME280;54767;53.800;15.956;2023-02-23T09:13:31;100112.34;;;2.37;71.55
67987;BME280;54767;53.800;15.956;2023-02-23T09:15:59;100112.02;;;2.44;71.51
67987;BME280;54767;53.800;15.956;2023-02-23T09:18:27;100112.77;;;2.51;71.41
67987;BME280;54767;53.800;15.956;2023-02-23T09:20:56;100109.91;;;2.59;71.50
67987;BME280;54767;53.800;15.956;2023-02-23T09:23:27;100109.58;;;2.64;71.56
67987;BME280;54767;53.800;15.956;2023-02-23T09:25:56;100108.02;;;2.70;71.41
67987;BME280;54767;53.800;15.956;2023-02-23T09:28:24;100104.85;;;2.74;71.38
67987;BME280;54767;53.800;15.956;2023-02-23T09:31:08;100101.36;;;2.78;71.24
67987;BME280;54767;53.800;15.956;2023-02-23T09:33:37;100098.02;;;2.81;71.28
67987;BME280;54767;53.800;15.956;2023-02-23T09:36:11;100087.58;;;2.85;71.24
67987;BME280;54767;53.800;15.956;2023-02-23T09:38:45;100081.41;;;2.87;71.17
67987;BME280;54767;53.800;15.956;2023-02-23T09:47:26;100070.38;;;3.05;71.22
67987;BME280;54767;53.800;15.956;2023-02-23T09:50:07;100076.89;;;3.15;71.28
67987;BME280;54767;53.800;15.956;2023-02-23T09:52:43;100077.09;;;3.22;71.01
67987;BME280;54767;53.800;15.956;2023-02-23T09:55:13;100075.80;;;3.26;70.92
67987;BME280;54767;53.800;15.956;2023-02-23T09:57:44;100075.41;;;3.29;71.06
67987;BME280;54767;53.800;15.956;2023-02-23T10:00:21;100078.60;;;3.33;70.91
67987;BME280;54767;53.800;15.956;2023-02-23T10:03:25;100079.59;;;3.37;71.04
67987;BME280;54767;53.800;15.956;2023-02-23T10:06:04;100079.04;;;3.42;71.11
67987;BME280;54767;53.800;15.956;2023-02-23T10:12:04;100073.17;;;3.55;71.22
67987;BME280;54767;53.800;15.956;2023-02-23T10:17:59;100068.69;;;3.68;70.64
67987;BME280;54767;53.800;15.956;2023-02-23T10:23:06;100059.45;;;3.79;71.09
67987;BME280;54767;53.800;15.956;2023-02-23T10:25:42;100061.33;;;3.84;71.20
67987;BME280;54767;53.800;15.956;2023-02-23T10:28:18;100056.38;;;3.87;70.51
67987;BME280;54767;53.800;15.956;2023-02-23T10:30:49;100058.23;;;3.91;70.78
67987;BME280;54767;53.800;15.956;2023-02-23T10:33:23;100058.14;;;3.95;70.42
67987;BME280;54767;53.800;15.956;2023-02-23T10:35:56;100051.84;;;3.99;70.93
67987;BME280;54767;53.800;15.956;2023-02-23T10:38:40;100049.38;;;4.04;70.91
67987;BME280;54767;53.800;15.956;2023-02-23T10:41:08;100051.13;;;4.12;71.08
67987;BME280;54767;53.800;15.956;2023-02-23T10:43:41;100049.42;;;4.20;71.26
67987;BME280;54767;53.800;15.956;2023-02-23T10:46:21;100047.54;;;4.28;71.10
67987;BME280;54767;53.800;15.956;2023-02-23T10:48:52;100044.10;;;4.37;70.81
67987;BME280;54767;53.800;15.956;2023-02-23T10:51:27;100043.94;;;4.44;70.68
67987;BME280;54767;53.800;15.956;2023-02-23T10:53:57;100036.44;;;4.49;70.83
67987;BME280;54767;53.800;15.956;2023-02-23T10:56:43;100032.73;;;4.54;70.99
67987;BME280;54767;53.800;15.956;2023-02-23T10:59:17;100023.82;;;4.59;70.69
67987;BME280;54767;53.800;15.956;2023-02-23T11:01:46;100018.55;;;4.63;70.83
67987;BME280;54767;53.800;15.956;2023-02-23T11:04:31;100016.75;;;4.68;71.27
67987;BME280;54767;53.800;15.956;2023-02-23T11:07:23;100009.05;;;4.73;70.96
67987;BME280;54767;53.800;15.956;2023-02-23T11:09:52;99999.16;;;4.80;70.64
67987;BME280;54767;53.800;15.956;2023-02-23T11:17:55;99984.86;;;5.01;71.17
67987;BME280;54767;53.800;15.956;2023-02-23T11:20:40;99988.30;;;5.08;70.60
67987;BME280;54767;53.800;15.956;2023-02-23T11:23:30;99983.71;;;5.13;70.54
67987;BME280;54767;53.800;15.956;2023-02-23T11:26:03;99975.65;;;5.18;70.44
67987;BME280;54767;53.800;15.956;2023-02-23T11:28:35;99971.73;;;5.21;70.24
67987;BME280;54767;53.800;15.956;2023-02-23T11:31:16;99969.02;;;5.25;70.26
67987;BME280;54767;53.800;15.956;2023-02-23T11:33:46;99963.98;;;5.25;69.83
67987;BME280;54767;53.800;15.956;2023-02-23T11:36:35;99958.96;;;5.26;70.03
67987;BME280;54767;53.800;15.956;2023-02-23T11:41:46;99957.10;;;5.28;69.78
67987;BME280;54767;53.800;15.956;2023-02-23T11:44:30;99948.83;;;5.30;69.63
67987;BME280;54767;53.800;15.956;2023-02-23T11:47:00;99944.70;;;5.32;69.80
67987;BME280;54767;53.800;15.956;2023-02-23T11:49:32;99940.57;;;5.34;69.93
67987;BME280;54767;53.800;15.956;2023-02-23T11:52:13;99941.20;;;5.40;69.81
67987;BME280;54767;53.800;15.956;2023-02-23T11:54:53;99937.84;;;5.47;69.91
67987;BME280;54767;53.800;15.956;2023-02-23T11:57:28;99932.91;;;5.53;70.02
67987;BME280;54767;53.800;15.956;2023-02-23T11:59:59;99928.66;;;5.58;70.09
67987;BME280;54767;53.800;15.956;2023-02-23T12:02:29;99925.27;;;5.63;69.87
67987;BME280;54767;53.800;15.956;2023-02-23T12:05:06;99919.40;;;5.65;69.51
67987;BME280;54767;53.800;15.956;2023-02-23T12:10:38;99911.87;;;5.73;69.57
67987;BME280;54767;53.800;15.956;2023-02-23T12:13:21;99908.10;;;5.75;69.43
67987;BME280;54767;53.800;15.956;2023-02-23T12:18:46;99900.38;;;5.80;69.59
67987;BME280;54767;53.800;15.956;2023-02-23T12:27:20;99889.30;;;5.92;69.18
67987;BME280;54767;53.800;15.956;2023-02-23T12:30:02;99881.04;;;5.97;69.00
67987;BME280;54767;53.800;15.956;2023-02-23T12:40:38;99872.36;;;6.09;68.98
67987;BME280;54767;53.800;15.956;2023-02-23T12:43:31;99873.44;;;6.12;69.07
67987;BME280;54767;53.800;15.956;2023-02-23T12:51:50;99853.68;;;6.16;68.91
67987;BME280;54767;53.800;15.956;2023-02-23T12:54:21;99850.94;;;6.18;69.11
67987;BME280;54767;53.800;15.956;2023-02-23T13:05:40;99831.28;;;6.29;68.88
67987;BME280;54767;53.800;15.956;2023-02-23T13:08:40;99831.17;;;6.34;68.98
67987;BME280;54767;53.800;15.956;2023-02-23T13:20:29;99815.31;;;6.61;69.59
67987;BME280;54767;53.800;15.956;2023-02-23T13:23:31;99814.13;;;6.64;69.55
67987;BME280;54767;53.800;15.956;2023-02-23T13:29:08;99808.11;;;6.71;69.46
67987;BME280;54767;53.800;15.956;2023-02-23T13:31:39;99803.11;;;6.74;69.41
67987;BME280;54767;53.800;15.956;2023-02-23T13:34:12;99800.56;;;6.80;69.31
67987;BME280;54767;53.800;15.956;2023-02-23T13:36:44;99803.05;;;6.86;69.32
67987;BME280;54767;53.800;15.956;2023-02-23T13:49:51;99777.82;;;7.02;69.28
67987;BME280;54767;53.800;15.956;2023-02-23T13:52:33;99771.57;;;7.03;69.21
67987;BME280;54767;53.800;15.956;2023-02-23T13:58:05;99764.10;;;7.06;69.07
67987;BME280;54767;53.800;15.956;2023-02-23T14:00:37;99760.28;;;7.07;69.17
67987;BME280;54767;53.800;15.956;2023-02-23T14:03:07;99759.93;;;7.07;69.04
67987;BME280;54767;53.800;15.956;2023-02-23T14:05:51;99752.27;;;7.06;68.96
67987;BME280;54767;53.800;15.956;2023-02-23T14:08:37;99751.59;;;7.07;68.90
67987;BME280;54767;53.800;15.956;2023-02-23T14:11:06;99752.64;;;7.09;68.88
67987;BME280;54767;53.800;15.956;2023-02-23T14:13:40;99751.98;;;7.12;68.90
67987;BME280;54767;53.800;15.956;2023-02-23T14:16:24;99748.85;;;7.13;69.01
67987;BME280;54767;53.800;15.956;2023-02-23T14:19:03;99746.40;;;7.11;68.93
67987;BME280;54767;53.800;15.956;2023-02-23T14:21:55;99746.20;;;7.09;68.84
67987;BME280;54767;53.800;15.956;2023-02-23T14:24:28;99750.02;;;7.05;68.75
67987;BME280;54767;53.800;15.956;2023-02-23T14:29:43;99757.08;;;6.97;69.00
67987;BME280;54767;53.800;15.956;2023-02-23T14:34:48;99756.70;;;6.94;68.94
67987;BME280;54767;53.800;15.956;2023-02-23T14:42:29;99760.35;;;6.95;68.97
67987;BME280;54767;53.800;15.956;2023-02-23T14:45:04;99762.44;;;6.94;69.14
67987;BME280;54767;53.800;15.956;2023-02-23T14:47:46;99763.09;;;6.91;69.03
67987;BME280;54767;53.800;15.956;2023-02-23T14:50:29;99762.55;;;6.88;68.99
67987;BME280;54767;53.800;15.956;2023-02-23T14:52:58;99766.16;;;6.84;69.11
67987;BME280;54767;53.800;15.956;2023-02-23T14:55:31;99760.55;;;6.79;68.92
67987;BME280;54767;53.800;15.956;2023-02-23T14:58:16;99763.27;;;6.73;68.97
67987;BME280;54767;53.800;15.956;2023-02-23T15:00:48;99762.21;;;6.71;69.16
67987;BME280;54767;53.800;15.956;2023-02-23T15:03:19;99762.20;;;6.70;69.14
67987;BME280;54767;53.800;15.956;2023-02-23T15:05:53;99765.83;;;6.68;69.18
67987;BME280;54767;53.800;15.956;2023-02-23T15:08:24;99764.42;;;6.65;69.05
67987;BME280;54767;53.800;15.956;2023-02-23T15:11:09;99769.45;;;6.64;69.20
67987;BME280;54767;53.800;15.956;2023-02-23T15:13:46;99764.90;;;6.62;69.26
67987;BME280;54767;53.800;15.956;2023-02-23T15:16:34;99761.75;;;6.60;69.38
67987;BME280;54767;53.800;15.956;2023-02-23T15:19:04;99759.30;;;6.57;69.37
67987;BME280;54767;53.800;15.956;2023-02-23T15:21:33;99758.58;;;6.55;69.44
67987;BME280;54767;53.800;15.956;2023-02-23T15:24:09;99756.31;;;6.55;69.57
67987;BME280;54767;53.800;15.956;2023-02-23T15:26:40;99756.66;;;6.56;69.26
67987;BME280;54767;53.800;15.956;2023-02-23T15:29:16;99755.09;;;6.55;69.22